Time;durP1;ratioP1;P1;durP2;ratioP2;P2;SDS_P1;SDS_P2;PMS_P1;PMS_P2;Temp;Humidity;BMP_temperature;BMP_pressure;BME280_temperature;BME280_humidity;BME280_pressure;Samples;Min_cycle;Max_cycle;Signal;HPM_P1;HPM_P2
2022/10/21 00:00:57;;;;;;;13.57;7.53;;;;;;;;;;5095934;28;20390;-81
2022/10/21 00:03:23;;;;;;;16.02;7.55;;;;;;;;;;5073906;28;20044;-81
2022/10/21 00:05:50;;;;;;;13.68;7.63;;;;;;;;;;5075085;28;20083;-81
2022/10/21 00:08:17;;;;;;;14.75;8.27;;;;;;;;;;5074914;28;20072;-81
2022/10/21 00:10:43;;;;;;;12.98;7.65;;;;;;;;;;5094446;28;20074;-81
2022/10/21 00:13:10;;;;;;;11.10;6.78;;;;;;;;;;5060823;28;20067;-82
2022/10/21 00:15:36;;;;;;;12.98;7.47;;;;;;;;;;5057802;28;20048;-81
2022/10/21 00:18:02;;;;;;;14.63;7.85;;;;;;;;;;5074903;28;20470;-83
2022/10/21 00:20:28;;;;;;;12.38;6.90;;;;;;;;;;5087805;28;20036;-82
2022/10/21 00:22:54;;;;;;;18.65;8.55;;;;;;;;;;5072941;28;20035;-82
2022/10/21 00:25:20;;;;;;;15.23;7.28;;;;;;;;;;5057564;28;20490;-82
2022/10/21 00:27:46;;;;;;;17.17;8.13;;;;;;;;;;5075566;28;20059;-82
2022/10/21 00:30:13;;;;;;;15.25;8.40;;;;;;;;;;5080727;28;20478;-82
2022/10/21 00:32:39;;;;;;;15.82;8.40;;;;;;;;;;5076410;28;20028;-82
2022/10/21 00:35:05;;;;;;;17.40;8.32;;;;;;;;;;5075517;28;20040;-82
2022/10/21 00:37:32;;;;;;;13.50;7.35;;;;;;;;;;5074161;28;20032;-82
2022/10/21 00:39:58;;;;;;;12.85;6.63;;;;;;;;;;5074044;28;20395;-82
2022/10/21 00:42:30;;;;;;;16.25;8.25;;;;;;;;;;5073929;28;20037;-82
2022/10/21 00:45:06;;;;;;;18.73;8.82;;;;;;;;;;5074178;28;20499;-83
2022/10/21 00:47:39;;;;;;;16.37;7.60;;;;;;;;;;5075549;28;20036;-83
2022/10/21 00:50:06;;;;;;;15.68;7.85;;;;;;;;;;5074317;28;20052;-82
2022/10/21 00:52:33;;;;;;;17.65;8.45;;;;;;;;;;5106099;28;20055;-82
2022/10/21 00:55:00;;;;;;;15.65;6.78;;;;;;;;;;5073431;28;20082;-82
2022/10/21 00:57:27;;;;;;;14.95;8.02;;;;;;;;;;5073699;28;20406;-82
2022/10/21 00:59:54;;;;;;;15.38;7.80;;;;;;;;;;5073263;28;20135;-82
2022/10/21 01:02:20;;;;;;;13.60;7.85;;;;;;;;;;5067270;28;20043;-81
2022/10/21 01:04:48;;;;;;;17.52;7.95;;;;;;;;;;5078508;28;20484;-81
2022/10/21 01:07:14;;;;;;;16.15;7.57;;;;;;;;;;5056627;28;20094;-81
2022/10/21 01:09:40;;;;;;;18.35;9.35;;;;;;;;;;5073319;28;20547;-81
2022/10/21 01:12:11;;;;;;;15.45;7.25;;;;;;;;;;5076632;28;20046;-82
2022/10/21 01:14:44;;;;;;;20.13;8.63;;;;;;;;;;5074029;28;20066;-82
2022/10/21 01:17:42;;;;;;;16.27;8.18;;;;;;;;;;5057185;28;20080;-81
2022/10/21 01:20:27;;;;;;;15.48;9.15;;;;;;;;;;5030057;28;20505;-81
2022/10/21 01:23:12;;;;;;;14.40;7.50;;;;;;;;;;5079200;28;20102;-82
2022/10/21 01:25:38;;;;;;;15.30;8.65;;;;;;;;;;5065325;28;20044;-82
2022/10/21 01:28:04;;;;;;;15.75;7.97;;;;;;;;;;5073265;28;20048;-82
2022/10/21 01:30:30;;;;;;;16.45;8.30;;;;;;;;;;5056412;28;20048;-82
2022/10/21 01:33:03;;;;;;;21.15;7.55;;;;;;;;;;5074928;28;20048;-82
2022/10/21 01:35:32;;;;;;;17.88;7.40;;;;;;;;;;5085158;28;20398;-83
2022/10/21 01:38:07;;;;;;;15.23;9.32;;;;;;;;;;5072300;28;20043;-83
2022/10/21 01:40:36;;;;;;;17.92;8.30;;;;;;;;;;5056353;28;20040;-83
2022/10/21 01:43:13;;;;;;;16.15;7.13;;;;;;;;;;5056225;28;20494;-83
2022/10/21 01:45:48;;;;;;;16.10;8.38;;;;;;;;;;5092178;28;20054;-83
2022/10/21 01:48:20;;;;;;;14.23;8.68;;;;;;;;;;5076215;28;20430;-82
2022/10/21 01:50:49;;;;;;;13.15;6.97;;;;;;;;;;5055030;28;20044;-82
2022/10/21 01:53:15;;;;;;;20.15;7.57;;;;;;;;;;5056108;28;20041;-82
2022/10/21 01:55:42;;;;;;;13.90;7.57;;;;;;;;;;5056912;28;20553;-82
2022/10/21 01:58:11;;;;;;;14.40;7.95;;;;;;;;;;5071815;28;20056;-82
2022/10/21 02:00:37;;;;;;;14.40;8.18;;;;;;;;;;5055873;28;20058;-81
2022/10/21 02:03:08;;;;;;;15.43;8.15;;;;;;;;;;5072599;28;20045;-81
2022/10/21 02:05:35;;;;;;;13.48;7.60;;;;;;;;;;5074163;28;20496;-81
2022/10/21 02:08:01;;;;;;;12.50;6.88;;;;;;;;;;5068596;28;20074;-82
2022/10/21 02:10:29;;;;;;;16.75;8.00;;;;;;;;;;5056241;28;20045;-82
2022/10/21 02:12:58;;;;;;;15.88;7.50;;;;;;;;;;5069423;22;20402;-84
2022/10/21 02:15:25;;;;;;;14.63;6.85;;;;;;;;;;5076789;28;20036;-84
2022/10/21 02:18:02;;;;;;;15.95;6.82;;;;;;;;;;5063738;28;20127;-85
2022/10/21 02:20:30;;;;;;;16.15;8.07;;;;;;;;;;5056300;28;20085;-86
2022/10/21 02:22:57;;;;;;;18.83;7.35;;;;;;;;;;5072717;28;20040;-86
2022/10/21 02:25:25;;;;;;;17.25;7.35;;;;;;;;;;5072632;28;20109;-85
2022/10/21 02:27:52;;;;;;;17.40;7.53;;;;;;;;;;5071493;28;20405;-86
2022/10/21 02:30:18;;;;;;;18.35;7.25;;;;;;;;;;5072629;28;20050;-85
2022/10/21 02:32:51;;;;;;;12.30;6.40;;;;;;;;;;5055744;28;20040;-85
2022/10/21 02:35:38;;;;;;;13.40;6.70;;;;;;;;;;5055783;28;20132;-84
2022/10/21 02:38:13;;;;;;;14.30;7.72;;;;;;;;;;5075352;28;20052;-85
2022/10/21 02:40:44;;;;;;;13.02;7.30;;;;;;;;;;5054991;28;20053;-86
2022/10/21 02:43:16;;;;;;;13.50;7.55;;;;;;;;;;5072448;28;20041;-85
2022/10/21 02:45:45;;;;;;;17.55;7.18;;;;;;;;;;5073536;28;20044;-85
2022/10/21 02:48:11;;;;;;;15.57;8.82;;;;;;;;;;5087393;28;20055;-85
2022/10/21 02:50:37;;;;;;;11.38;6.35;;;;;;;;;;5060076;28;20040;-85
2022/10/21 02:53:03;;;;;;;12.68;7.32;;;;;;;;;;5073596;28;20041;-86
2022/10/21 02:55:29;;;;;;;15.60;8.00;;;;;;;;;;5072737;28;20048;-85
2022/10/21 02:57:55;;;;;;;13.70;7.53;;;;;;;;;;5055688;28;20120;-85
2022/10/21 03:00:22;;;;;;;13.55;6.35;;;;;;;;;;5073224;28;20040;-85
2022/10/21 03:02:48;;;;;;;15.10;6.30;;;;;;;;;;5057650;28;20479;-85
2022/10/21 03:05:14;;;;;;;10.57;5.07;;;;;;;;;;5059570;28;20462;-83
2022/10/21 03:07:40;;;;;;;9.77;5.38;;;;;;;;;;5059419;28;20040;-83
2022/10/21 03:10:06;;;;;;;10.93;5.60;;;;;;;;;;5076067;28;20433;-83
2022/10/21 03:12:32;;;;;;;8.30;4.72;;;;;;;;;;5059125;28;20548;-83
2022/10/21 03:14:58;;;;;;;15.18;5.38;;;;;;;;;;5075500;28;20498;-83
2022/10/21 03:17:24;;;;;;;10.30;5.50;;;;;;;;;;5087528;28;20040;-83
2022/10/21 03:19:50;;;;;;;10.25;6.40;;;;;;;;;;5079480;28;20181;-83
2022/10/21 03:22:17;;;;;;;11.13;5.38;;;;;;;;;;5058902;28;20051;-83
2022/10/21 03:24:43;;;;;;;11.60;5.18;;;;;;;;;;5059531;28;20044;-83
2022/10/21 03:27:09;;;;;;;9.80;4.20;;;;;;;;;;5081460;28;20063;-82
2022/10/21 03:29:35;;;;;;;9.88;4.30;;;;;;;;;;5080979;28;20488;-82
2022/10/21 03:32:01;;;;;;;12.00;6.20;;;;;;;;;;5075450;28;20040;-82
2022/10/21 03:34:27;;;;;;;9.07;5.80;;;;;;;;;;5075607;28;20042;-83
2022/10/21 03:36:53;;;;;;;6.45;3.55;;;;;;;;;;5075002;28;20063;-83
2022/10/21 03:39:19;;;;;;;8.60;4.40;;;;;;;;;;5047187;28;20032;-83
2022/10/21 03:41:45;;;;;;;8.85;4.47;;;;;;;;;;5075234;28;20041;-83
2022/10/21 03:44:11;;;;;;;7.63;4.07;;;;;;;;;;5058958;28;20528;-83
2022/10/21 03:46:37;;;;;;;6.80;3.78;;;;;;;;;;5074911;28;20051;-83
2022/10/21 03:49:03;;;;;;;14.30;4.70;;;;;;;;;;5087616;28;20059;-83
2022/10/21 03:51:29;;;;;;;8.98;4.03;;;;;;;;;;5074652;28;20105;-83
2022/10/21 03:53:56;;;;;;;7.60;3.55;;;;;;;;;;5074921;28;20394;-83
2022/10/21 03:56:22;;;;;;;8.82;4.47;;;;;;;;;;5055944;28;20032;-82
2022/10/21 03:58:48;;;;;;;7.60;3.47;;;;;;;;;;5063152;28;20335;-82
2022/10/21 04:01:14;;;;;;;9.00;4.38;;;;;;;;;;5096704;28;20040;-82
2022/10/21 04:03:40;;;;;;;7.60;4.50;;;;;;;;;;5095742;28;20386;-82
2022/10/21 04:06:06;;;;;;;7.90;4.20;;;;;;;;;;5066622;28;20048;-82
2022/10/21 04:08:33;;;;;;;13.13;5.40;;;;;;;;;;5074963;28;20175;-82
2022/10/21 04:10:59;;;;;;;10.30;5.35;;;;;;;;;;5081942;28;20048;-85
2022/10/21 04:13:25;;;;;;;10.35;5.05;;;;;;;;;;5040875;28;20045;-85
2022/10/21 04:15:57;;;;;;;7.95;4.78;;;;;;;;;;5057540;28;20048;-85
2022/10/21 04:18:23;;;;;;;11.02;5.45;;;;;;;;;;5074909;28;20042;-85
2022/10/21 04:20:49;;;;;;;10.20;5.00;;;;;;;;;;5071092;28;20036;-85
2022/10/21 04:23:15;;;;;;;10.80;5.07;;;;;;;;;;5078133;28;20474;-85
2022/10/21 04:25:43;;;;;;;32.53;6.05;;;;;;;;;;5088178;28;20064;-85
2022/10/21 04:28:09;;;;;;;8.95;5.28;;;;;;;;;;5074682;28;20394;-85
2022/10/21 04:30:36;;;;;;;11.00;4.97;;;;;;;;;;5059541;28;20513;-85
2022/10/21 04:33:02;;;;;;;13.73;5.93;;;;;;;;;;5057984;28;20052;-85
2022/10/21 04:35:28;;;;;;;14.20;6.22;;;;;;;;;;5074882;28;20075;-85
2022/10/21 04:37:54;;;;;;;12.65;6.15;;;;;;;;;;5057556;28;20123;-85
2022/10/21 04:40:21;;;;;;;12.35;5.88;;;;;;;;;;5058221;28;20040;-85
2022/10/21 04:42:50;;;;;;;13.27;6.75;;;;;;;;;;5095113;28;20040;-85
2022/10/21 04:45:17;;;;;;;10.60;5.30;;;;;;;;;;5077944;28;20044;-82
2022/10/21 04:47:43;;;;;;;8.55;4.88;;;;;;;;;;5082836;28;20048;-82
2022/10/21 04:50:09;;;;;;;11.98;5.57;;;;;;;;;;5074251;28;20399;-82
2022/10/21 04:52:35;;;;;;;12.55;6.45;;;;;;;;;;5086823;28;20141;-82
2022/10/21 04:55:01;;;;;;;12.18;6.32;;;;;;;;;;5076352;28;20647;-82
2022/10/21 04:57:28;;;;;;;18.42;6.65;;;;;;;;;;5073659;28;20033;-82
2022/10/21 04:59:54;;;;;;;12.88;6.50;;;;;;;;;;5075415;28;20043;-84
2022/10/21 05:02:20;;;;;;;9.48;5.70;;;;;;;;;;5079091;28;20374;-85
2022/10/21 05:04:46;;;;;;;11.48;6.18;;;;;;;;;;5094233;28;20048;-85
2022/10/21 05:07:12;;;;;;;14.40;7.30;;;;;;;;;;5060253;28;20486;-85
2022/10/21 05:09:38;;;;;;;12.20;6.65;;;;;;;;;;5057099;28;20044;-85
2022/10/21 05:12:04;;;;;;;12.25;5.80;;;;;;;;;;5075213;28;20040;-85
2022/10/21 05:14:30;;;;;;;8.07;5.10;;;;;;;;;;5073974;28;20110;-85
2022/10/21 05:16:56;;;;;;;17.17;6.30;;;;;;;;;;5057370;28;20173;-85
2022/10/21 05:19:22;;;;;;;13.13;5.88;;;;;;;;;;5073490;28;20036;-85
2022/10/21 05:21:48;;;;;;;13.05;5.72;;;;;;;;;;5073334;28;20428;-85
2022/10/21 05:24:15;;;;;;;14.30;7.05;;;;;;;;;;5085692;28;20096;-85
2022/10/21 05:26:41;;;;;;;13.85;7.40;;;;;;;;;;5093932;28;20044;-85
2022/10/21 05:29:07;;;;;;;13.82;6.32;;;;;;;;;;5084740;28;20066;-85
2022/10/21 05:31:33;;;;;;;13.13;6.95;;;;;;;;;;5073602;28;20051;-85
2022/10/21 05:33:59;;;;;;;10.73;6.10;;;;;;;;;;5061586;28;20036;-81
2022/10/21 05:36:26;;;;;;;12.00;5.72;;;;;;;;;;5081224;28;20040;-82
2022/10/21 05:38:52;;;;;;;13.38;7.68;;;;;;;;;;5056316;28;20390;-82
2022/10/21 05:41:18;;;;;;;15.35;7.05;;;;;;;;;;5073155;28;20504;-82
2022/10/21 05:43:44;;;;;;;13.88;7.40;;;;;;;;;;5073265;28;20067;-83
2022/10/21 05:46:10;;;;;;;13.15;6.57;;;;;;;;;;5081528;28;20504;-82
2022/10/21 05:48:37;;;;;;;11.63;6.10;;;;;;;;;;5040038;28;20040;-82
2022/10/21 05:51:04;;;;;;;13.73;6.00;;;;;;;;;;5073688;28;20123;-81
2022/10/21 05:53:30;;;;;;;11.63;6.35;;;;;;;;;;5090837;28;20093;-82
2022/10/21 05:55:56;;;;;;;14.90;7.13;;;;;;;;;;5041847;28;20042;-82
2022/10/21 05:58:22;;;;;;;11.75;5.75;;;;;;;;;;5072978;28;20048;-82
2022/10/21 06:00:49;;;;;;;14.50;7.90;;;;;;;;;;5072968;28;20044;-82
2022/10/21 06:03:15;;;;;;;10.85;6.43;;;;;;;;;;5070015;28;20386;-81
2022/10/21 06:05:41;;;;;;;13.57;8.15;;;;;;;;;;5071523;28;20090;-82
2022/10/21 06:08:07;;;;;;;17.40;8.20;;;;;;;;;;5039782;28;20070;-82
2022/10/21 06:10:33;;;;;;;14.90;7.28;;;;;;;;;;5081211;28;20040;-82
2022/10/21 06:12:59;;;;;;;18.50;8.60;;;;;;;;;;5040283;28;20056;-82
2022/10/21 06:15:25;;;;;;;19.13;8.07;;;;;;;;;;5072101;28;20529;-82
2022/10/21 06:17:51;;;;;;;15.32;7.25;;;;;;;;;;5055677;28;20040;-82
2022/10/21 06:20:18;;;;;;;17.08;8.65;;;;;;;;;;5042528;28;20036;-82
2022/10/21 06:22:44;;;;;;;19.65;7.75;;;;;;;;;;5052806;28;20372;-82
2022/10/21 06:25:10;;;;;;;15.45;7.93;;;;;;;;;;5038480;28;20130;-82
2022/10/21 06:27:36;;;;;;;21.05;8.18;;;;;;;;;;5072220;28;20486;-82
2022/10/21 06:30:02;;;;;;;17.48;7.72;;;;;;;;;;5056135;28;20075;-82
2022/10/21 06:32:28;;;;;;;18.30;7.22;;;;;;;;;;5076771;28;20040;-82
2022/10/21 06:34:54;;;;;;;15.80;7.95;;;;;;;;;;5056047;28;20058;-82
2022/10/21 06:37:20;;;;;;;14.77;8.45;;;;;;;;;;5071192;28;20094;-82
2022/10/21 06:39:46;;;;;;;13.95;7.72;;;;;;;;;;5055476;28;20041;-82
2022/10/21 06:42:14;;;;;;;13.15;6.97;;;;;;;;;;5055481;28;20041;-82
2022/10/21 06:44:40;;;;;;;17.75;8.35;;;;;;;;;;5072199;28;20032;-82
2022/10/21 06:47:07;;;;;;;12.77;7.03;;;;;;;;;;5066495;28;20484;-82
2022/10/21 06:49:33;;;;;;;16.55;7.45;;;;;;;;;;5049623;28;20120;-82
2022/10/21 06:51:59;;;;;;;11.23;7.28;;;;;;;;;;5055169;28;20043;-82
2022/10/21 06:54:25;;;;;;;11.07;6.28;;;;;;;;;;5071941;28;20095;-82
2022/10/21 06:56:51;;;;;;;16.83;8.27;;;;;;;;;;5071282;28;20052;-85
2022/10/21 06:59:17;;;;;;;22.23;8.80;;;;;;;;;;5085595;28;20029;-85
2022/10/21 07:01:43;;;;;;;15.38;8.23;;;;;;;;;;5072177;28;20036;-85
2022/10/21 07:04:09;;;;;;;16.52;7.38;;;;;;;;;;5055291;28;20040;-85
2022/10/21 07:06:36;;;;;;;13.32;7.88;;;;;;;;;;5079655;28;20372;-85
2022/10/21 07:09:03;;;;;;;15.48;8.27;;;;;;;;;;5081603;28;20051;-85
2022/10/21 07:11:29;;;;;;;12.25;7.07;;;;;;;;;;5081219;28;20506;-85
2022/10/21 07:13:56;;;;;;;17.27;7.22;;;;;;;;;;5070862;28;20063;-83
2022/10/21 07:16:26;;;;;;;13.25;7.63;;;;;;;;;;5054485;28;20037;-82
2022/10/21 07:18:52;;;;;;;13.80;7.95;;;;;;;;;;5077151;28;20032;-82
2022/10/21 07:21:19;;;;;;;16.95;7.22;;;;;;;;;;5079360;28;20041;-82
2022/10/21 07:23:46;;;;;;;13.82;6.97;;;;;;;;;;5055752;28;20041;-82
2022/10/21 07:26:13;;;;;;;17.00;7.35;;;;;;;;;;5055381;28;20086;-82
2022/10/21 07:28:40;;;;;;;13.82;6.65;;;;;;;;;;5057882;28;20050;-82
2022/10/21 07:31:07;;;;;;;17.05;8.02;;;;;;;;;;5056769;28;20502;-85
2022/10/21 07:33:33;;;;;;;14.32;7.65;;;;;;;;;;5073696;28;20044;-85
2022/10/21 07:36:04;;;;;;;16.75;7.82;;;;;;;;;;5073071;28;20041;-85
2022/10/21 07:38:30;;;;;;;19.25;8.85;;;;;;;;;;5073739;28;20070;-85
2022/10/21 07:40:57;;;;;;;23.33;10.43;;;;;;;;;;5074036;28;20402;-85
2022/10/21 07:43:23;;;;;;;17.40;8.57;;;;;;;;;;5074762;28;20033;-85
2022/10/21 07:45:49;;;;;;;16.58;7.57;;;;;;;;;;5059167;28;20391;-85
2022/10/21 07:48:15;;;;;;;17.00;8.00;;;;;;;;;;5075196;28;20102;-85
2022/10/21 07:50:42;;;;;;;13.80;7.05;;;;;;;;;;5058749;28;20052;-85
2022/10/21 07:53:08;;;;;;;13.65;7.35;;;;;;;;;;5057891;28;20494;-84
2022/10/21 07:55:34;;;;;;;15.32;7.00;;;;;;;;;;5072777;28;20040;-85
2022/10/21 07:58:00;;;;;;;11.35;6.55;;;;;;;;;;5056937;28;20112;-85
2022/10/21 08:00:26;;;;;;;13.70;6.07;;;;;;;;;;5074017;28;20062;-85
2022/10/21 08:02:56;;;;;;;12.63;6.35;;;;;;;;;;5060748;28;20040;-85
2022/10/21 08:05:23;;;;;;;10.05;6.22;;;;;;;;;;5075402;28;20041;-83
2022/10/21 08:07:49;;;;;;;12.07;6.18;;;;;;;;;;5074127;28;20368;-83
2022/10/21 08:10:15;;;;;;;12.73;5.55;;;;;;;;;;5074719;28;20049;-83
2022/10/21 08:12:41;;;;;;;10.60;6.03;;;;;;;;;;5057499;28;20095;-83
2022/10/21 08:15:08;;;;;;;14.20;6.70;;;;;;;;;;5077114;28;20041;-83
2022/10/21 08:17:34;;;;;;;11.20;5.68;;;;;;;;;;5058969;28;20453;-83
2022/10/21 08:20:00;;;;;;;16.27;6.88;;;;;;;;;;5074504;28;20032;-85
2022/10/21 08:22:26;;;;;;;21.88;9.85;;;;;;;;;;5074277;28;20161;-86
2022/10/21 08:24:52;;;;;;;21.08;9.43;;;;;;;;;;5041577;28;20049;-85
2022/10/21 08:27:18;;;;;;;29.98;8.10;;;;;;;;;;5060740;28;20036;-86
2022/10/21 08:29:46;;;;;;;13.18;7.03;;;;;;;;;;5069765;28;20025;-85
2022/10/21 08:32:12;;;;;;;14.25;6.03;;;;;;;;;;5073922;28;20544;-85
2022/10/21 08:34:38;;;;;;;13.30;5.53;;;;;;;;;;5074627;28;20036;-86
2022/10/21 08:37:04;;;;;;;10.27;4.97;;;;;;;;;;5057124;28;20032;-84
2022/10/21 08:39:30;;;;;;;15.27;6.68;;;;;;;;;;5076723;28;20486;-84
2022/10/21 08:41:56;;;;;;;11.05;5.93;;;;;;;;;;5057003;28;20049;-83
2022/10/21 08:44:41;;;;;;;14.07;6.03;;;;;;;;;;5057518;28;20044;-84
2022/10/21 08:47:22;;;;;;;10.73;6.47;;;;;;;;;;5057627;28;20040;-84
2022/10/21 08:49:48;;;;;;;16.08;6.50;;;;;;;;;;5072909;28;20515;-83
2022/10/21 08:52:20;;;;;;;9.90;6.18;;;;;;;;;;5074262;28;20032;-83
2022/10/21 08:54:48;;;;;;;10.75;5.25;;;;;;;;;;5056327;28;20035;-84
2022/10/21 08:57:14;;;;;;;9.63;5.38;;;;;;;;;;5056690;28;20043;-84
2022/10/21 08:59:41;;;;;;;9.43;5.10;;;;;;;;;;5059150;28;20481;-84
2022/10/21 09:02:26;;;;;;;14.02;5.13;;;;;;;;;;5074010;28;20040;-84
2022/10/21 09:05:19;;;;;;;11.68;5.68;;;;;;;;;;5056935;28;20047;-84
2022/10/21 09:07:51;;;;;;;13.77;5.60;;;;;;;;;;5073647;28;20119;-84
2022/10/21 09:10:24;;;;;;;10.63;4.82;;;;;;;;;;5075163;28;20067;-86
2022/10/21 09:12:59;;;;;;;10.40;4.90;;;;;;;;;;5093708;28;20083;-86
2022/10/21 09:15:27;;;;;;;14.80;5.13;;;;;;;;;;5077387;28;20046;-86
2022/10/21 09:18:09;;;;;;;12.52;6.10;;;;;;;;;;5076718;28;20496;-86
2022/10/21 09:20:35;;;;;;;20.50;6.53;;;;;;;;;;5081561;28;20041;-86
2022/10/21 09:23:10;;;;;;;7.85;4.80;;;;;;;;;;5093086;28;20040;-86
2022/10/21 09:25:39;;;;;;;10.23;5.40;;;;;;;;;;5092138;28;20040;-86
2022/10/21 09:28:10;;;;;;;12.18;4.63;;;;;;;;;;5076584;28;20040;-86
2022/10/21 09:30:38;;;;;;;9.00;4.20;;;;;;;;;;5083335;28;20037;-86
2022/10/21 09:33:09;;;;;;;9.25;4.13;;;;;;;;;;5073053;28;20048;-86
2022/10/21 09:35:38;;;;;;;11.35;4.90;;;;;;;;;;5057907;28;20040;-86
2022/10/21 09:38:10;;;;;;;9.35;4.07;;;;;;;;;;5072948;28;20036;-86
2022/10/21 09:40:36;;;;;;;9.85;4.55;;;;;;;;;;5055893;28;20035;-86
2022/10/21 09:43:03;;;;;;;10.30;4.38;;;;;;;;;;5070226;28;20040;-86
2022/10/21 09:45:32;;;;;;;6.70;4.25;;;;;;;;;;5052295;28;20067;-84
2022/10/21 09:48:00;;;;;;;9.63;5.50;;;;;;;;;;5070604;28;20047;-84
2022/10/21 09:50:27;;;;;;;10.77;4.63;;;;;;;;;;5072667;28;20036;-84
2022/10/21 09:53:13;;;;;;;6.63;3.90;;;;;;;;;;5065297;28;20041;-85
2022/10/21 09:55:39;;;;;;;11.43;4.22;;;;;;;;;;5045051;28;20050;-85
2022/10/21 09:58:05;;;;;;;8.30;3.90;;;;;;;;;;5072562;28;20051;-83
2022/10/21 10:00:43;;;;;;;11.60;4.78;;;;;;;;;;5055792;28;20036;-85
2022/10/21 10:03:09;;;;;;;8.35;4.22;;;17.10;99.90;;;;;;5071126;28;20074;-85
2022/10/21 10:05:46;;;;;;;8.80;4.57;;;16.80;99.90;;;;;;5055001;28;20042;-86
2022/10/21 10:08:36;;;;;;;10.07;4.30;;;16.70;99.90;;;;;;5066147;28;20094;-86
2022/10/21 10:11:09;;;;;;;7.45;4.20;;;16.70;99.90;;;;;;5104066;28;20059;-86
2022/10/21 10:13:41;;;;;;;6.80;3.92;;;16.70;99.90;;;;;;5070967;28;20048;-85
2022/10/21 10:16:39;;;;;;;14.45;4.50;;;16.70;99.90;;;;;;5072379;28;20041;-86
2022/10/21 10:19:15;;;;;;;8.18;3.60;;;16.70;99.90;;;;;;5052647;28;20040;-84
2022/10/21 10:21:41;;;;;;;8.90;3.88;;;16.70;99.90;;;;;;5045342;28;20043;-84
2022/10/21 10:24:18;;;;;;;8.35;3.40;;;16.60;99.90;;;;;;5055329;28;20036;-84
2022/10/21 10:26:45;;;;;;;9.25;4.20;;;16.60;99.90;;;;;;5072014;28;20040;-84
2022/10/21 10:29:14;;;;;;;6.97;4.22;;;16.70;99.90;;;;;;5055497;28;20151;-84
2022/10/21 10:31:45;;;;;;;10.25;3.83;;;16.80;99.90;;;;;;5072445;28;20123;-84
2022/10/21 10:34:21;;;;;;;7.00;3.53;;;16.90;99.90;;;;;;5055517;28;20044;-84
2022/10/21 10:36:48;;;;;;;7.63;3.92;;;17.00;99.90;;;;;;5062422;28;20043;-84
2022/10/21 10:39:26;;;;;;;7.18;3.55;;;17.10;99.90;;;;;;5072058;28;20533;-84
2022/10/21 10:41:52;;;;;;;7.90;3.47;;;17.10;99.90;;;;;;5071593;28;20044;-85
2022/10/21 10:44:41;;;;;;;10.07;3.35;;;17.10;99.90;;;;;;5055249;28;20043;-84
2022/10/21 10:47:16;;;;;;;5.97;3.22;;;17.10;99.90;;;;;;5086768;28;20076;-84
2022/10/21 10:49:42;;;;;;;7.50;4.07;;;17.10;99.90;;;;;;5058528;28;20135;-84
2022/10/21 10:52:11;;;;;;;10.95;3.75;;;17.10;99.90;;;;;;5071909;28;20051;-84
2022/10/21 10:54:41;;;;;;;6.40;3.42;;;17.20;99.90;;;;;;5085099;28;20040;-84
2022/10/21 10:57:24;;;;;;;8.85;3.72;;;17.10;99.90;;;;;;5071012;28;20045;-84
2022/10/21 11:00:11;;;;;;;7.18;4.20;;;17.10;99.90;;;;;;5063988;28;20028;-84
2022/10/21 11:02:48;;;;;;;7.60;3.47;;;17.10;99.90;;;;;;5071622;28;20044;-84
2022/10/21 11:05:41;;;;;;;9.27;3.28;;;17.10;99.90;;;;;;5104894;28;20044;-84
2022/10/21 11:08:22;;;;;;;5.65;3.22;;;17.10;99.90;;;;;;5054859;28;20051;-84
2022/10/21 11:11:00;;;;;;;7.88;3.50;;;17.10;99.90;;;;;;5068728;28;20036;-84
2022/10/21 11:13:27;;;;;;;7.22;3.53;;;17.10;99.90;;;;;;5051677;28;20056;-84
2022/10/21 11:16:26;;;;;;;6.82;3.80;;;17.10;99.90;;;;;;5053276;28;20045;-84
2022/10/21 11:19:01;;;;;;;7.75;3.97;;;17.10;99.90;;;;;;5071651;28;20497;-84
2022/10/21 11:21:44;;;;;;;8.30;3.40;;;17.10;99.90;;;;;;5072196;28;20036;-84
2022/10/21 11:24:25;;;;;;;9.73;3.35;;;17.10;99.90;;;;;;5066434;28;20087;-84
2022/10/21 11:27:19;;;;;;;7.90;3.55;;;17.10;99.90;;;;;;5058748;28;20101;-84
2022/10/21 11:29:57;;;;;;;11.02;3.53;;;17.10;99.90;;;;;;5074938;28;20078;-84
2022/10/21 11:32:29;;;;;;;9.32;3.42;;;17.10;99.90;;;;;;5058765;28;20070;-84
2022/10/21 11:35:21;;;;;;;7.65;2.95;;;17.10;99.90;;;;;;5071074;28;20086;-84
2022/10/21 11:37:48;;;;;;;9.32;4.32;;;;;;;;;;5058831;28;20048;-84
2022/10/21 11:40:14;;;;;;;8.45;3.45;;;;;;;;;;5076885;28;20039;-84
2022/10/21 11:42:40;;;;;;;9.05;3.83;;;;;;;;;;5079407;28;20033;-84
2022/10/21 11:45:25;;;;;;;5.60;2.80;;;;;;;;;;5063030;28;20114;-84
2022/10/21 11:47:51;;;;;;;6.28;3.25;;;;;;;;;;5076143;28;20398;-84
2022/10/21 11:50:27;;;;;;;6.22;3.30;;;;;;;;;;5076598;28;20387;-83
2022/10/21 11:52:56;;;;;;;7.50;3.30;;;;;;;;;;5095384;28;20075;-84
2022/10/21 11:55:33;;;;;;;6.80;3.45;;;;;;;;;;5096278;28;20048;-84
2022/10/21 11:58:06;;;;;;;6.43;3.78;;;;;;;;;;5087990;28;20036;-85
2022/10/21 12:01:14;;;;;;;6.10;3.45;;;;;;;;;;5100446;28;20073;-85
2022/10/21 12:03:56;;;;;;;7.45;3.03;;;;;;;;;;5088019;28;20036;-85
2022/10/21 12:06:34;;;;;;;5.53;3.22;;;;;;;;;;5091519;28;20041;-86
2022/10/21 12:09:06;;;;;;;11.27;3.63;;;;;;;;;;5058647;28;20047;-86
2022/10/21 12:11:38;;;;;;;12.02;3.80;;;;;;;;;;5074900;28;20051;-84
2022/10/21 12:14:28;;;;;;;6.45;3.00;;;;;;;;;;5074862;28;20064;-82
2022/10/21 12:16:55;;;;;;;5.63;2.38;;;;;;;;;;5071171;28;20075;-82
2022/10/21 12:19:22;;;;;;;6.47;3.17;;;;;;;;;;5074639;28;20045;-82
2022/10/21 12:21:49;;;;;;;7.28;2.95;;;;;;;;;;5074336;28;20403;-82
2022/10/21 12:24:26;;;;;;;7.60;3.20;;;;;;;;;;5074662;28;20086;-82
2022/10/21 12:26:56;;;;;;;5.20;3.10;;;;;;;;;;5074926;28;20044;-82
2022/10/21 12:29:42;;;;;;;9.18;2.85;;;;;;;;;;5074773;28;20047;-82
2022/10/21 12:32:18;;;;;;;6.03;2.97;;;;;;;;;;5025322;28;20386;-82
2022/10/21 12:34:44;;;;;;;5.70;3.10;;;;;;;;;;5056905;28;20115;-81
2022/10/21 12:37:29;;;;;;;5.20;2.47;;;;;;;;;;5074133;28;20094;-81
2022/10/21 12:40:09;;;;;;;5.75;2.80;;;;;;;;;;5071471;28;20482;-84
2022/10/21 12:42:35;;;;;;;6.53;2.55;;;;;;;;;;5057559;28;20059;-84
2022/10/21 12:45:01;;;;;;;6.28;2.97;;;;;;;;;;5057495;28;20045;-84
2022/10/21 12:47:32;;;;;;;6.28;2.83;;;;;;;;;;5057624;28;20082;-84
2022/10/21 12:50:18;;;;;;;6.85;2.88;;;;;;;;;;5073882;28;20119;-84
2022/10/21 12:52:45;;;;;;;4.72;2.80;;;;;;;;;;5067210;28;20058;-84
2022/10/21 12:55:22;;;;;;;4.57;2.50;;;;;;;;;;5073435;28;20044;-84
2022/10/21 12:57:59;;;;;;;5.25;2.35;;;;;;;;;;5074562;28;20068;-85
2022/10/21 13:00:29;;;;;;;5.50;2.53;;;;;;;;;;5074071;28;20037;-85
2022/10/21 13:03:03;;;;;;;5.55;2.33;;;;;;;;;;5066806;28;20055;-85
2022/10/21 13:05:38;;;;;;;4.00;2.00;;;;;;;;;;5094270;28;20089;-85
2022/10/21 13:08:13;;;;;;;6.20;3.30;;;;;;;;;;5065545;28;20101;-85
2022/10/21 13:10:39;;;;;;;5.03;2.57;;;;;;;;;;5057149;28;20045;-85
2022/10/21 13:13:24;;;;;;;5.15;2.30;;;;;;;;;;5073866;28;20311;-85
2022/10/21 13:15:50;;;;;;;9.70;2.30;;;;;;;;;;5056898;28;20041;-85
2022/10/21 13:18:36;;;;;;;9.75;2.58;;;;;;;;;;5073408;28;20043;-85
2022/10/21 13:21:02;;;;;;;6.00;2.65;;;;;;;;;;5057200;28;20463;-86
2022/10/21 13:23:30;;;;;;;5.45;2.58;;;;;;;;;;5073315;28;20040;-86
2022/10/21 13:26:04;;;;;;;3.60;2.08;;;;;;;;;;5071090;28;20040;-85
2022/10/21 13:28:30;;;;;;;7.30;2.97;;;;;;;;;;5073647;28;20395;-85
2022/10/21 13:31:00;;;;;;;9.45;2.40;;;;;;;;;;5073354;28;20078;-86
2022/10/21 13:33:31;;;;;;;6.93;2.95;;;;;;;;;;5073794;28;20071;-85
2022/10/21 13:36:10;;;;;;;10.35;2.83;;;19.90;99.90;;;;;;5076489;28;20051;-85
2022/10/21 13:38:45;;;;;;;6.75;3.08;;;19.80;99.90;;;;;;5093806;28;20040;-85
2022/10/21 13:41:28;;;;;;;5.50;2.47;;;19.70;99.90;;;;;;5093750;28;20092;-84
2022/10/21 13:43:57;;;;;;;6.40;3.03;;;19.70;99.90;;;;;;5080291;28;20040;-85
2022/10/21 13:46:30;;;;;;;10.82;3.03;;;19.40;99.90;;;;;;5071760;28;20482;-85
2022/10/21 13:48:59;;;;;;;9.68;3.65;;;19.30;99.90;;;;;;5053954;28;20068;-85
2022/10/21 13:51:31;;;;;;;5.43;2.95;;;19.10;99.90;;;;;;5069861;28;20076;-85
2022/10/21 13:54:11;;;;;;;9.02;3.00;;;18.90;99.90;;;;;;5069724;28;20045;-86
2022/10/21 13:56:39;;;;;;;8.55;3.35;;;18.90;99.90;;;;;;5056331;28;20045;-85
2022/10/21 13:59:17;;;;;;;7.80;3.22;;;18.80;99.90;;;;;;5073048;28;20048;-85
2022/10/21 14:01:50;;;;;;;6.15;2.97;;;18.80;99.90;;;;;;5052960;28;20495;-85
2022/10/21 14:04:24;;;;;;;9.63;3.75;;;18.70;99.90;;;;;;5055938;28;20041;-86
2022/10/21 14:07:16;;;;;;;12.85;2.90;;;18.60;99.90;;;;;;5055024;28;20047;-86
2022/10/21 14:09:45;;;;;;;6.55;2.80;;;18.60;99.90;;;;;;5071592;28;20040;-86
2022/10/21 14:12:32;;;;;;;6.15;2.97;;;18.50;99.90;;;;;;5089656;28;20059;-87
2022/10/21 14:15:23;;;;;;;8.90;2.63;;;18.40;99.90;;;;;;5080047;28;20157;-86
2022/10/21 14:17:54;;;;;;;10.93;4.43;;;18.20;99.90;;;;;;5056066;28;20060;-87
2022/10/21 14:20:32;;;;;;;6.50;2.42;;;18.10;99.90;;;;;;5106252;28;20059;-86
2022/10/21 14:23:01;;;;;;;6.30;2.88;;;18.10;99.90;;;;;;5073640;28;20044;-86
2022/10/21 14:25:28;;;;;;;5.13;2.70;;;18.00;99.90;;;;;;5058905;28;20123;-86
2022/10/21 14:27:54;;;;;;;7.47;3.10;;;18.00;99.90;;;;;;5064764;22;20045;-85
2022/10/21 14:30:22;;;;;;;4.72;2.88;;;17.90;99.90;;;;;;5090165;28;20178;-85